Time;durP1;ratioP1;P1;durP2;ratioP2;P2;SDS_P1;SDS_P2;PMS_P1;PMS_P2;Temp;Humidity;BMP_temperature;BMP_pressure;BME280_temperature;BME280_humidity;BME280_pressure;Samples;Min_cycle;Max_cycle;Signal;HPM_P1;HPM_P2
2021/01/22 00:01:22;;;;;;;3.07;2.70;;;7.60;99.90;;;;;;4892034;29;20406;-80
2021/01/22 00:03:48;;;;;;;3.03;2.72;;;7.80;99.90;;;;;;4862782;29;20498;-78
2021/01/22 00:06:15;;;;;;;3.83;2.42;;;7.90;99.90;;;;;;4860797;29;20411;-80
2021/01/22 00:08:43;;;;;;;3.42;2.53;;;7.80;99.90;;;;;;4859639;29;20781;-81
2021/01/22 00:11:10;;;;;;;2.90;2.08;;;8.00;99.90;;;;;;4868715;29;20458;-81
2021/01/22 00:13:35;;;;;;;2.30;2.10;;;8.00;99.90;;;;;;4894291;29;20422;-82
2021/01/22 00:16:01;;;;;;;2.47;2.28;;;8.20;99.90;;;;;;4861774;29;20848;-80
2021/01/22 00:18:27;;;;;;;2.30;2.10;;;8.30;99.90;;;;;;4874498;29;20428;-81
2021/01/22 00:20:52;;;;;;;2.30;1.93;;;8.30;99.90;;;;;;4894429;29;20422;-80
2021/01/22 00:23:19;;;;;;;2.30;2.05;;;8.40;99.90;;;;;;4874664;29;20457;-80
2021/01/22 00:25:44;;;;;;;1.92;1.77;;;8.40;99.90;;;;;;4876093;29;20415;-81
2021/01/22 00:28:10;;;;;;;3.17;2.37;;;8.50;99.90;;;;;;4890095;29;20510;-80
2021/01/22 00:30:36;;;;;;;2.85;2.15;;;8.20;99.90;;;;;;4873721;29;20411;-81
2021/01/22 00:33:01;;;;;;;2.63;2.27;;;8.10;99.90;;;;;;4895067;29;20418;-81
2021/01/22 00:35:27;;;;;;;4.65;2.70;;;8.00;99.90;;;;;;4874511;29;20968;-80
2021/01/22 00:37:52;;;;;;;3.17;2.73;;;7.80;99.90;;;;;;4874190;29;20449;-81
2021/01/22 00:40:18;;;;;;;3.53;2.45;;;7.80;99.90;;;;;;4892208;29;20550;-81
2021/01/22 00:42:44;;;;;;;2.93;2.67;;;7.60;99.90;;;;;;4876676;29;20418;-81
2021/01/22 00:45:10;;;;;;;3.13;2.60;;;7.50;99.90;;;;;;4890760;29;20502;-81
2021/01/22 00:47:35;;;;;;;4.03;2.88;;;7.50;99.90;;;;;;4873691;29;20417;-82
2021/01/22 00:50:01;;;;;;;4.82;3.20;;;7.40;99.90;;;;;;4871555;29;20455;-81
2021/01/22 00:52:28;;;;;;;3.13;2.77;;;7.40;99.90;;;;;;4893704;29;20407;-81
2021/01/22 00:54:54;;;;;;;3.38;2.80;;;7.40;99.90;;;;;;4859147;29;20421;-81
2021/01/22 00:57:38;;;;;;;3.28;2.80;;;7.30;99.90;;;;;;4887150;29;20899;-81
2021/01/22 01:00:05;;;;;;;3.75;2.92;;;7.30;99.90;;;;;;4907505;29;20463;-81
2021/01/22 01:02:37;;;;;;;3.13;2.70;;;7.30;99.90;;;;;;4878206;29;20420;-81
2021/01/22 01:05:04;;;;;;;5.13;2.97;;;7.30;99.90;;;;;;4889464;29;20401;-80
2021/01/22 01:07:29;;;;;;;3.50;2.90;;;7.30;99.90;;;;;;4844558;29;20474;-80
2021/01/22 01:09:55;;;;;;;2.88;2.58;;;7.30;99.90;;;;;;4860718;29;20414;-80
2021/01/22 01:12:39;;;;;;;3.28;2.80;;;7.40;99.90;;;;;;4883139;29;20443;-81
2021/01/22 01:15:25;;;;;;;3.67;2.88;;;7.50;99.90;;;;;;4886340;29;20416;-81
2021/01/22 01:17:51;;;;;;;4.97;2.78;;;7.50;99.90;;;;;;4892094;29;20476;-80
2021/01/22 01:20:17;;;;;;;3.87;2.60;;;7.50;99.90;;;;;;4890361;29;20412;-81
2021/01/22 01:22:42;;;;;;;3.63;2.78;;;7.50;99.90;;;;;;4890203;29;20412;-80
2021/01/22 01:25:08;;;;;;;3.40;2.80;;;7.50;99.90;;;;;;4892656;29;20410;-80
2021/01/22 01:27:34;;;;;;;3.47;2.50;;;7.50;99.90;;;;;;4889755;29;20404;-81
2021/01/22 01:30:00;;;;;;;2.83;2.53;;;7.40;99.90;;;;;;4894832;29;20411;-81
2021/01/22 01:32:25;;;;;;;5.17;2.83;;;7.40;99.90;;;;;;4866244;29;20434;-81
2021/01/22 01:34:51;;;;;;;4.10;3.05;;;7.40;99.90;;;;;;4861516;29;20414;-80
2021/01/22 01:37:17;;;;;;;2.85;2.65;;;7.40;99.90;;;;;;4886468;29;20423;-81
2021/01/22 01:39:42;;;;;;;3.00;2.70;;;7.40;99.90;;;;;;4877562;29;20395;-81
2021/01/22 01:42:09;;;;;;;3.78;2.80;;;7.40;99.90;;;;;;4876425;29;20418;-82
2021/01/22 01:44:35;;;;;;;3.00;2.58;;;7.40;99.90;;;;;;4876222;29;20517;-81
2021/01/22 01:47:00;;;;;;;2.97;2.65;;;7.40;99.90;;;;;;4887257;29;20408;-81
2021/01/22 01:49:26;;;;;;;2.50;2.23;;;7.30;99.90;;;;;;4874500;29;20510;-81
2021/01/22 01:51:51;;;;;;;3.75;2.80;;;7.30;99.90;;;;;;4861963;29;20413;-80
2021/01/22 01:54:18;;;;;;;2.90;2.57;;;7.30;99.90;;;;;;4879105;29;20414;-81
2021/01/22 01:56:44;;;;;;;2.55;2.35;;;7.30;99.90;;;;;;4888239;29;20436;-80
2021/01/22 01:59:09;;;;;;;3.77;2.67;;;7.30;99.90;;;;;;4889129;29;20950;-80
2021/01/22 02:01:35;;;;;;;4.35;2.78;;;7.30;99.90;;;;;;4876331;29;20776;-81
2021/01/22 02:04:01;;;;;;;3.58;2.58;;;7.30;99.90;;;;;;4875451;29;20501;-81
2021/01/22 02:06:27;;;;;;;4.30;2.90;;;7.20;99.90;;;;;;4891962;29;20423;-81
2021/01/22 02:08:52;;;;;;;4.97;2.80;;;7.20;99.90;;;;;;4860151;29;21204;-82
2021/01/22 02:11:18;;;;;;;3.80;2.97;;;7.20;99.90;;;;;;4884496;29;20415;-80
2021/01/22 02:13:44;;;;;;;2.67;2.47;;;7.20;99.90;;;;;;4892114;29;20414;-80
2021/01/22 02:16:10;;;;;;;3.20;2.90;;;7.20;99.90;;;;;;4889813;29;20407;-80
2021/01/22 02:18:36;;;;;;;4.05;2.90;;;7.10;99.90;;;;;;4889708;29;20411;-82
2021/01/22 02:21:10;;;;;;;3.50;2.75;;;7.10;99.90;;;;;;4874629;29;20408;-80
2021/01/22 02:23:37;;;;;;;3.37;2.57;;;7.10;99.90;;;;;;4905867;29;20947;-81
2021/01/22 02:26:27;;;;;;;4.30;3.20;;;7.10;99.90;;;;;;4864410;29;20430;-81
2021/01/22 02:28:54;;;;;;;4.18;2.95;;;7.10;99.90;;;;;;4889801;29;20940;-80
2021/01/22 02:31:19;;;;;;;3.40;2.88;;;7.10;99.90;;;;;;4893401;29;20415;-81
2021/01/22 02:33:45;;;;;;;3.72;2.80;;;7.10;99.90;;;;;;4897419;29;20445;-81
2021/01/22 02:36:13;;;;;;;2.77;2.57;;;7.00;99.90;;;;;;4890406;29;20401;-80
2021/01/22 02:38:39;;;;;;;4.20;2.70;;;7.00;99.90;;;;;;4875518;29;20424;-81
2021/01/22 02:41:05;;;;;;;3.28;2.83;;;7.10;99.90;;;;;;4879451;29;20414;-81
2021/01/22 02:43:31;;;;;;;4.15;3.00;;;7.00;99.90;;;;;;4880448;29;20415;-81
2021/01/22 02:45:56;;;;;;;3.80;2.53;;;7.00;99.90;;;;;;4892724;29;20415;-82
2021/01/22 02:48:22;;;;;;;3.50;3.00;;;7.00;99.90;;;;;;4894308;29;20416;-81
2021/01/22 02:50:48;;;;;;;4.85;3.33;;;6.90;99.90;;;;;;4893206;29;20479;-82
2021/01/22 02:53:13;;;;;;;3.17;2.70;;;7.00;99.90;;;;;;4895339;29;20823;-81
2021/01/22 02:55:39;;;;;;;2.67;2.45;;;7.00;99.90;;;;;;4880246;29;20834;-79
2021/01/22 02:58:27;;;;;;;5.97;3.30;;;7.00;99.90;;;;;;4848527;29;20423;-78
2021/01/22 03:00:54;;;;;;;3.83;3.05;;;6.90;99.90;;;;;;4893940;29;20457;-78
2021/01/22 03:03:33;;;;;;;3.33;3.03;;;6.90;99.90;;;;;;4877173;29;20411;-78
2021/01/22 03:05:59;;;;;;;4.38;3.30;;;6.90;99.90;;;;;;4888806;29;20415;-81
2021/01/22 03:08:25;;;;;;;3.42;2.83;;;7.00;99.90;;;;;;4890525;29;20401;-81
2021/01/22 03:10:51;;;;;;;3.35;2.67;;;6.90;99.90;;;;;;4879688;29;20801;-81
2021/01/22 03:13:17;;;;;;;3.67;3.20;;;6.90;99.90;;;;;;4893875;29;20407;-81
2021/01/22 03:15:42;;;;;;;3.58;2.72;;;6.80;99.90;;;;;;4878567;29;20498;-81
2021/01/22 03:18:14;;;;;;;3.77;3.10;;;6.90;99.90;;;;;;4874019;29;20429;-81
2021/01/22 03:20:41;;;;;;;3.83;2.85;;;6.80;99.90;;;;;;4892728;29;20529;-81
2021/01/22 03:23:06;;;;;;;2.90;2.70;;;6.80;99.90;;;;;;4870104;29;20408;-80
2021/01/22 03:25:32;;;;;;;3.30;2.40;;;6.90;99.90;;;;;;4882661;29;20449;-81
2021/01/22 03:27:58;;;;;;;4.20;2.90;;;6.80;99.90;;;;;;4891832;29;20411;-81
2021/01/22 03:30:23;;;;;;;3.17;2.90;;;6.70;99.90;;;;;;4890495;29;20397;-81
2021/01/22 03:32:49;;;;;;;4.03;3.30;;;6.70;99.90;;;;;;4896989;29;20945;-82
2021/01/22 03:35:15;;;;;;;3.93;3.10;;;6.70;99.90;;;;;;4881016;29;20415;-81
2021/01/22 03:37:41;;;;;;;3.42;3.10;;;6.60;99.90;;;;;;4892983;29;20430;-81
2021/01/22 03:40:07;;;;;;;3.30;2.97;;;6.60;99.90;;;;;;4876876;29;20486;-80
2021/01/22 03:42:32;;;;;;;3.25;2.70;;;6.50;99.90;;;;;;4893778;29;20899;-81
2021/01/22 03:44:58;;;;;;;3.70;3.10;;;6.50;99.90;;;;;;4894156;29;20911;-81
2021/01/22 03:47:24;;;;;;;4.32;3.17;;;6.40;99.90;;;;;;4891118;29;20546;-81
2021/01/22 03:49:49;;;;;;;4.63;3.17;;;6.30;99.90;;;;;;4896589;29;20418;-81
2021/01/22 03:52:17;;;;;;;3.95;2.95;;;6.30;99.90;;;;;;4886499;29;20457;-81
2021/01/22 03:54:43;;;;;;;3.53;3.08;;;6.30;99.90;;;;;;4893629;29;20445;-81
2021/01/22 03:57:09;;;;;;;3.13;2.83;;;6.40;99.90;;;;;;4880064;29;20470;-81
2021/01/22 03:59:34;;;;;;;3.43;2.70;;;6.20;99.90;;;;;;4857719;29;20416;-81
2021/01/22 04:02:00;;;;;;;3.78;3.08;;;6.20;99.90;;;;;;4908210;29;20410;-80
2021/01/22 04:04:26;;;;;;;2.93;2.73;;;6.10;99.90;;;;;;4873551;29;20408;-80
2021/01/22 04:06:51;;;;;;;2.80;2.60;;;6.10;99.90;;;;;;4890820;29;20825;-82
2021/01/22 04:09:17;;;;;;;5.03;3.00;;;6.10;99.90;;;;;;4877188;29;20783;-81
2021/01/22 04:11:43;;;;;;;4.63;3.25;;;5.90;99.90;;;;;;4882410;29;20415;-80
2021/01/22 04:14:08;;;;;;;3.28;2.60;;;6.00;99.90;;;;;;4880626;29;20486;-80
2021/01/22 04:16:34;;;;;;;4.37;3.07;;;6.10;99.90;;;;;;4879433;29;20409;-80
2021/01/22 04:19:00;;;;;;;4.20;2.83;;;6.10;99.90;;;;;;4888759;29;20422;-80
2021/01/22 04:21:25;;;;;;;3.60;3.20;;;5.90;99.90;;;;;;4875904;29;20471;-81
2021/01/22 04:23:51;;;;;;;3.65;3.15;;;6.00;99.90;;;;;;4896082;29;20500;-81
2021/01/22 04:26:17;;;;;;;4.67;3.00;;;5.90;99.90;;;;;;4867352;29;20859;-80
2021/01/22 04:28:42;;;;;;;3.97;3.13;;;6.00;99.90;;;;;;4892878;29;20490;-82
2021/01/22 04:31:08;;;;;;;4.80;3.30;;;6.00;99.90;;;;;;4901527;29;20436;-80
2021/01/22 04:33:34;;;;;;;3.83;3.00;;;5.90;99.90;;;;;;4892636;29;20431;-81
2021/01/22 04:35:59;;;;;;;3.53;3.08;;;5.90;99.90;;;;;;4877048;29;20482;-80
2021/01/22 04:38:25;;;;;;;3.50;3.10;;;5.90;99.90;;;;;;4876430;29;20439;-81
2021/01/22 04:40:50;;;;;;;3.28;2.97;;;6.00;99.90;;;;;;4908012;29;20421;-82
2021/01/22 04:43:16;;;;;;;3.35;2.97;;;6.00;99.90;;;;;;4875517;29;20785;-81
2021/01/22 04:45:43;;;;;;;3.70;2.90;;;6.00;99.90;;;;;;4870796;29;20412;-81
2021/01/22 04:48:08;;;;;;;3.93;3.13;;;6.10;99.90;;;;;;4875843;29;20418;-82
2021/01/22 04:50:34;;;;;;;3.90;3.10;;;6.20;99.90;;;;;;4861309;29;20510;-81
2021/01/22 04:59:22;;;;;;;3.58;2.78;;;6.20;99.90;;;;;;5486818;23;20434;-79
2021/01/22 05:02:09;;;;;;;2.65;2.45;;;6.30;99.90;;;;;;4840747;29;20438;-81
2021/01/22 05:05:01;;;;;;;4.90;3.00;;;6.30;99.90;;;;;;4845712;29;20424;-80
2021/01/22 05:07:29;;;;;;;4.30;2.90;;;6.30;99.90;;;;;;4823201;29;20429;-80
2021/01/22 05:10:24;;;;;;;4.53;3.05;;;6.30;99.90;;;;;;4828592;29;20420;-80
2021/01/22 05:13:15;;;;;;;3.42;2.97;;;6.40;99.90;;;;;;4785556;29;20434;-80
2021/01/22 05:16:28;;;;;;;4.72;2.88;;;6.30;99.90;;;;;;4831646;29;21068;-80
2021/01/22 05:18:54;;;;;;;2.65;2.45;;;6.60;99.90;;;;;;4827466;29;20452;-80
2021/01/22 05:21:46;;;;;;;4.13;2.35;;;6.60;99.90;;;;;;4857062;29;20408;-78
2021/01/22 05:24:28;;;;;;;3.28;2.80;;;6.70;99.90;;;;;;4819821;29;20418;-79
2021/01/22 05:27:15;;;;;;;3.13;2.70;;;6.60;99.90;;;;;;4848621;29;20519;-80
2021/01/22 05:29:47;;;;;;;2.85;2.60;;;6.60;99.90;;;;;;4835471;29;20490;-80
2021/01/22 05:32:45;;;;;;;3.00;2.75;;;6.60;99.90;;;;;;4826351;29;20414;-80
2021/01/22 05:38:16;;;;;;;3.83;2.70;;;6.80;99.90;;;;;;4871985;29;20911;-82
2021/01/22 05:40:51;;;;;;;2.73;2.30;;;6.80;99.90;;;;;;4889089;29;20408;-81
2021/01/22 05:43:16;;;;;;;2.97;2.63;;;7.00;99.90;;;;;;4863536;29;20904;-81
2021/01/22 05:45:46;;;;;;;3.15;2.47;;;7.00;99.90;;;;;;4852126;29;20406;-80
2021/01/22 05:48:26;;;;;;;2.65;2.45;;;7.10;99.90;;;;;;4844062;29;20418;-80
2021/01/22 05:50:54;;;;;;;2.37;2.17;;;7.00;99.90;;;;;;4872126;29;20443;-80
2021/01/22 05:53:22;;;;;;;2.92;2.63;;;7.00;99.90;;;;;;4841591;29;20418;-80
2021/01/22 05:56:07;;;;;;;2.77;2.43;;;7.00;99.90;;;;;;4848968;29;20410;-80
2021/01/22 05:58:33;;;;;;;2.85;2.50;;;7.00;99.90;;;;;;4854230;29;20415;-79
2021/01/22 06:01:09;;;;;;;2.70;2.50;;;6.90;99.90;;;;;;4851539;29;20480;-81
2021/01/22 06:03:35;;;;;;;2.65;2.40;;;6.90;99.90;;;;;;4848110;29;20426;-80
2021/01/22 06:06:01;;;;;;;3.25;2.33;;;6.90;99.90;;;;;;4846780;29;20923;-80
2021/01/22 06:08:27;;;;;;;2.85;2.50;;;6.80;99.90;;;;;;4868117;29;20406;-80
2021/01/22 06:10:53;;;;;;;2.70;2.45;;;6.90;99.90;;;;;;4836326;29;20401;-81
2021/01/22 06:13:25;;;;;;;2.97;2.50;;;7.00;99.90;;;;;;4862450;29;20427;-80
2021/01/22 06:15:56;;;;;;;3.95;2.47;;;6.70;99.90;;;;;;4856966;29;20820;-81
2021/01/22 06:18:27;;;;;;;3.17;2.50;;;6.90;99.90;;;;;;4873734;29;20419;-80
2021/01/22 06:20:53;;;;;;;3.20;2.55;;;6.90;99.90;;;;;;4842389;29;20425;-81
2021/01/22 06:23:19;;;;;;;3.10;2.30;;;6.90;99.90;;;;;;4827014;29;20414;-80
2021/01/22 06:25:44;;;;;;;2.50;2.30;;;6.90;99.90;;;;;;4844614;29;20408;-81
2021/01/22 06:28:10;;;;;;;3.25;2.50;;;6.90;99.90;;;;;;4884344;29;20434;-81
2021/01/22 06:30:37;;;;;;;2.53;2.33;;;6.90;99.90;;;;;;4866805;29;20794;-80
2021/01/22 06:33:04;;;;;;;2.40;2.20;;;6.80;99.90;;;;;;4864985;29;20434;-80
2021/01/22 06:35:31;;;;;;;2.75;2.47;;;6.80;99.90;;;;;;4855682;29;20429;-80
2021/01/22 06:37:57;;;;;;;3.72;2.75;;;6.80;99.90;;;;;;4826464;29;20497;-80
2021/01/22 06:40:23;;;;;;;2.55;2.35;;;6.80;99.90;;;;;;4857668;29;20513;-80
2021/01/22 06:42:49;;;;;;;3.22;2.30;;;6.90;99.90;;;;;;4826125;29;20489;-80
2021/01/22 06:45:16;;;;;;;3.77;2.67;;;6.90;99.90;;;;;;4826309;29;20433;-80
2021/01/22 06:47:42;;;;;;;2.45;2.25;;;6.80;99.90;;;;;;4849442;29;20451;-79
2021/01/22 06:50:20;;;;;;;2.10;2.00;;;6.90;99.90;;;;;;4840943;29;20833;-80
2021/01/22 06:53:05;;;;;;;3.03;2.20;;;7.00;99.90;;;;;;4851937;29;20410;-81
2021/01/22 06:55:30;;;;;;;3.88;2.90;;;6.80;99.90;;;;;;4857677;29;20453;-81
2021/01/22 06:58:27;;;;;;;3.03;2.30;;;6.80;99.90;;;;;;4840769;29;20807;-80
2021/01/22 07:00:57;;;;;;;2.57;2.37;;;6.80;99.90;;;;;;4854865;29;20466;-80
2021/01/22 07:03:45;;;;;;;2.30;2.13;;;6.80;99.90;;;;;;4842131;29;20494;-80
2021/01/22 07:06:30;;;;;;;3.00;2.60;;;6.70;99.90;;;;;;4856491;29;20418;-81
2021/01/22 07:08:56;;;;;;;3.17;2.42;;;6.70;99.90;;;;;;4855794;29;20429;-80
2021/01/22 07:11:23;;;;;;;2.55;2.35;;;6.70;99.90;;;;;;4864366;29;20408;-80
2021/01/22 07:13:49;;;;;;;2.58;2.38;;;6.70;99.90;;;;;;4856859;29;20422;-81
2021/01/22 07:16:17;;;;;;;2.75;2.38;;;6.60;99.90;;;;;;4825172;29;20405;-80
2021/01/22 07:18:54;;;;;;;5.40;2.72;;;6.60;99.90;;;;;;4856177;29;20422;-79
2021/01/22 07:21:32;;;;;;;2.63;2.38;;;6.60;99.90;;;;;;4837958;29;20424;-81
2021/01/22 07:23:59;;;;;;;2.55;2.35;;;6.60;99.90;;;;;;4867343;29;20904;-80
2021/01/22 07:26:50;;;;;;;2.75;2.40;;;6.70;99.90;;;;;;4858567;29;20790;-80
2021/01/22 07:29:21;;;;;;;2.42;2.22;;;6.70;99.90;;;;;;4834205;29;20817;-80
2021/01/22 07:31:50;;;;;;;4.10;2.70;;;6.70;99.90;;;;;;4881267;29;20918;-80
2021/01/22 07:34:44;;;;;;;5.60;2.42;;;6.60;99.90;;;;;;4863328;29;20422;-81
2021/01/22 07:37:10;;;;;;;3.57;2.63;;;6.70;99.90;;;;;;4855589;29;20486;-80
2021/01/22 07:39:36;;;;;;;3.53;2.60;;;6.80;99.90;;;;;;4862257;29;20978;-81
2021/01/22 07:42:07;;;;;;;3.28;2.65;;;6.80;99.90;;;;;;4826691;29;20422;-81
2021/01/22 07:44:33;;;;;;;3.05;2.58;;;6.80;99.90;;;;;;4859838;29;20406;-81
2021/01/22 07:46:58;;;;;;;3.75;2.60;;;6.90;99.90;;;;;;4825767;29;20621;-81
2021/01/22 07:49:24;;;;;;;3.42;2.65;;;6.90;99.90;;;;;;4840644;29;20410;-80
2021/01/22 07:51:50;;;;;;;4.10;2.70;;;7.00;99.90;;;;;;4829590;29;20447;-80
2021/01/22 07:54:15;;;;;;;3.47;2.75;;;7.20;99.90;;;;;;4827824;29;20454;-80
2021/01/22 07:56:42;;;;;;;2.90;2.60;;;7.10;99.90;;;;;;4840452;29;20505;-80
2021/01/22 07:59:09;;;;;;;2.58;2.30;;;7.10;99.90;;;;;;4826181;29;20498;-81
2021/01/22 08:01:36;;;;;;;2.85;2.35;;;7.10;99.90;;;;;;4825278;29;20434;-80
2021/01/22 08:04:02;;;;;;;2.80;1.97;;;7.20;99.90;;;;;;4826510;29;20939;-82
2021/01/22 08:06:28;;;;;;;2.50;2.30;;;7.30;99.90;;;;;;4841366;29;20415;-81
2021/01/22 08:09:07;;;;;;;2.47;2.27;;;7.40;99.90;;;;;;4841419;29;20421;-81
2021/01/22 08:11:32;;;;;;;2.60;2.40;;;7.50;99.90;;;;;;4826045;29;20430;-80
2021/01/22 08:13:58;;;;;;;2.58;2.38;;;7.50;99.90;;;;;;4842230;29;20503;-78
2021/01/22 08:16:24;;;;;;;4.20;2.10;;;7.60;99.90;;;;;;4841795;29;20413;-81
2021/01/22 08:18:51;;;;;;;2.57;2.37;;;7.70;99.90;;;;;;4856746;29;20433;-82
2021/01/22 08:21:16;;;;;;;4.13;2.63;;;7.80;99.90;;;;;;4857691;29;20469;-81
2021/01/22 08:23:46;;;;;;;2.90;2.50;;;7.70;99.90;;;;;;4857899;29;20414;-82
2021/01/22 08:26:11;;;;;;;2.50;2.03;;;7.80;99.90;;;;;;4858544;29;20416;-82
2021/01/22 08:28:40;;;;;;;1.93;1.83;;;7.80;99.90;;;;;;4858388;29;20406;-82
2021/01/22 08:31:07;;;;;;;2.30;2.00;;;8.00;99.90;;;;;;4857019;29;20466;-82
2021/01/22 08:33:34;;;;;;;2.35;2.15;;;8.00;99.90;;;;;;4857451;29;20412;-81
2021/01/22 08:36:00;;;;;;;2.63;2.10;;;8.10;99.90;;;;;;4842335;29;20418;-81
2021/01/22 08:38:25;;;;;;;2.47;2.17;;;8.30;99.90;;;;;;4852522;29;20458;-82
2021/01/22 08:40:51;;;;;;;2.90;2.30;;;8.30;99.90;;;;;;4839740;29;20416;-80
2021/01/22 08:43:17;;;;;;;2.30;2.10;;;8.30;99.90;;;;;;4856448;29;20774;-82
2021/01/22 08:46:05;;;;;;;2.67;2.30;;;8.40;99.90;;;;;;4839757;29;20418;-81
2021/01/22 08:48:30;;;;;;;2.40;2.20;;;8.40;99.90;;;;;;4871551;29;20891;-82
2021/01/22 08:50:59;;;;;;;2.33;2.13;;;8.50;99.90;;;;;;4855802;29;20417;-82
2021/01/22 09:02:42;;;;;;;2.70;2.10;;;8.60;99.90;;;;;;4886404;29;20952;-80
2021/01/22 09:05:12;;;;;;;2.95;2.20;;;8.70;99.90;;;;;;4857798;29;20424;-81
2021/01/22 09:07:39;;;;;;;2.63;2.20;;;8.60;99.90;;;;;;4889073;29;20408;-81
2021/01/22 09:10:07;;;;;;;2.50;2.00;;;8.80;99.90;;;;;;4866143;29;20492;-81
2021/01/22 09:12:33;;;;;;;2.38;2.17;;;8.80;99.90;;;;;;4857506;29;20433;-81
2021/01/22 09:14:59;;;;;;;2.35;2.15;;;8.80;99.90;;;;;;4874699;29;20447;-81
2021/01/22 09:17:42;;;;;;;2.90;2.45;;;8.80;99.90;;;;;;4877180;29;20412;-80
2021/01/22 09:20:13;;;;;;;2.30;2.10;;;9.00;99.90;;;;;;4844568;29;20441;-80
2021/01/22 09:22:39;;;;;;;2.65;2.30;;;9.10;99.90;;;;;;4855881;29;20464;-80
2021/01/22 09:25:10;;;;;;;4.18;2.30;;;9.20;99.90;;;;;;4872712;29;20477;-80
2021/01/22 09:27:37;;;;;;;2.80;2.33;;;9.10;99.90;;;;;;4843816;29;20488;-81
2021/01/22 09:30:08;;;;;;;2.38;2.17;;;9.20;99.90;;;;;;4829249;29;20405;-81
2021/01/22 09:32:37;;;;;;;2.50;1.90;;;9.30;99.90;;;;;;4826307;29;20488;-80
2021/01/22 09:35:04;;;;;;;3.58;2.47;;;9.30;99.90;;;;;;4858099;29;20412;-81
2021/01/22 09:37:30;;;;;;;2.42;2.22;;;9.40;99.90;;;;;;4857131;29;20435;-82
2021/01/22 09:39:56;;;;;;;2.33;2.13;;;9.60;99.90;;;;;;4858173;29;20906;-81
2021/01/22 09:42:22;;;;;;;3.45;2.28;;;9.50;99.90;;;;;;4849777;29;20549;-81
2021/01/22 09:44:48;;;;;;;2.30;2.10;;;9.70;99.90;;;;;;4861761;29;20431;-80
2021/01/22 09:47:15;;;;;;;2.20;2.00;;;9.60;99.90;;;;;;4855444;29;20492;-80
2021/01/22 09:49:41;;;;;;;2.67;2.17;;;9.80;99.90;;;;;;4848128;29;20412;-80
2021/01/22 09:52:33;;;;;;;3.10;2.13;;;9.70;99.90;;;;;;4865227;29;20412;-81
2021/01/22 09:54:59;;;;;;;1.97;1.80;;;10.00;99.90;;;;;;4839838;29;20505;-81
2021/01/22 09:57:25;;;;;;;2.55;2.00;;;10.00;99.90;;;;;;4840517;29;20412;-80
2021/01/22 09:59:51;;;;;;;2.97;2.20;;;10.20;99.90;;;;;;4881064;29;20445;-81
2021/01/22 10:02:17;;;;;;;2.13;1.92;;;10.20;99.90;;;;;;4880104;29;20990;-80
2021/01/22 10:04:43;;;;;;;4.82;2.20;;;10.30;99.90;;;;;;4865893;29;20781;-81
2021/01/22 10:07:09;;;;;;;2.83;2.50;;;10.30;99.90;;;;;;4864772;29;20485;-82
2021/01/22 10:09:36;;;;;;;3.42;2.28;;;10.50;99.90;;;;;;4864813;29;20500;-81
2021/01/22 10:12:02;;;;;;;2.30;2.10;;;10.60;99.90;;;;;;4879085;29;20813;-81
2021/01/22 10:14:29;;;;;;;2.58;2.15;;;10.60;99.90;;;;;;4882517;29;20426;-81
2021/01/22 10:16:55;;;;;;;4.25;2.40;;;10.70;99.90;;;;;;4865778;29;20836;-82
2021/01/22 10:19:20;;;;;;;2.85;2.40;;;10.60;99.90;;;;;;4886784;29;20432;-81
2021/01/22 10:21:48;;;;;;;2.80;2.10;;;10.60;99.90;;;;;;4862980;29;20456;-82
2021/01/22 10:24:16;;;;;;;2.55;2.10;;;10.80;99.90;;;;;;4862314;29;20936;-82
2021/01/22 10:26:46;;;;;;;3.23;2.13;;;10.90;99.90;;;;;;4864960;29;20412;-82
2021/01/22 10:29:12;;;;;;;2.78;1.98;;;10.90;99.90;;;;;;4864511;29;20436;-82
2021/01/22 10:31:39;;;;;;;2.05;1.92;;;11.00;99.90;;;;;;4861996;29;20413;-82
2021/01/22 10:47:38;;;;;;;2.33;2.13;;;11.00;99.90;;;;;;5016543;23;20432;-80
2021/01/22 10:50:05;;;;;;;4.32;2.22;;;11.10;99.90;;;;;;4865528;29;20426;-80
2021/01/22 10:52:31;;;;;;;2.17;1.98;;;10.90;99.90;;;;;;4864824;29;20789;-79
2021/01/22 10:54:57;;;;;;;3.28;2.28;;;10.90;99.90;;;;;;4866851;29;20429;-80
2021/01/22 10:57:23;;;;;;;2.93;2.00;;;10.90;99.90;;;;;;4857962;29;20419;-80
2021/01/22 10:59:49;;;;;;;3.15;2.15;;;10.80;99.90;;;;;;4875039;29;20418;-80
2021/01/22 11:02:14;;;;;;;3.30;2.57;;;10.80;99.90;;;;;;4858970;29;20476;-79
2021/01/22 11:04:40;;;;;;;2.83;2.10;;;10.80;99.90;;;;;;4874427;29;20515;-79
2021/01/22 11:07:06;;;;;;;2.67;2.20;;;10.70;99.90;;;;;;4859916;29;20416;-80
2021/01/22 11:09:32;;;;;;;3.37;2.33;;;10.70;99.90;;;;;;4857467;29;20476;-80
2021/01/22 11:11:58;;;;;;;2.20;1.97;;;10.70;99.90;;;;;;4856018;29;20867;-81
2021/01/22 11:14:24;;;;;;;4.15;2.20;;;10.70;99.90;;;;;;4840934;29;20406;-80
2021/01/22 11:16:49;;;;;;;1.95;1.85;;;10.80;99.90;;;;;;4844151;29;20413;-80
2021/01/22 11:19:15;;;;;;;3.20;2.40;;;10.70;99.90;;;;;;4872562;29;20471;-80
2021/01/22 11:21:41;;;;;;;2.80;2.00;;;10.50;99.90;;;;;;4859163;29;20407;-81
2021/01/22 11:24:07;;;;;;;2.35;2.15;;;10.70;99.90;;;;;;4859403;29;20445;-81
2021/01/22 11:26:38;;;;;;;2.05;1.88;;;10.80;99.90;;;;;;4859624;29;20460;-80
2021/01/22 11:29:05;;;;;;;2.28;1.95;;;10.70;99.90;;;;;;4860058;29;20413;-80
2021/01/22 11:31:30;;;;;;;2.60;2.08;;;10.70;99.90;;;;;;4846120;29;20422;-80
2021/01/22 11:33:56;;;;;;;2.20;1.98;;;10.80;99.90;;;;;;4882664;29;20777;-80
2021/01/22 11:36:23;;;;;;;2.20;1.90;;;10.50;99.90;;;;;;4841550;29;20405;-80
2021/01/22 11:38:49;;;;;;;3.30;2.47;;;10.70;99.90;;;;;;4870844;29;20486;-80
2021/01/22 11:41:15;;;;;;;2.50;1.95;;;10.70;99.90;;;;;;4830017;29;20802;-80
2021/01/22 11:43:41;;;;;;;2.80;1.93;;;10.70;99.90;;;;;;4859326;29;20408;-80
2021/01/22 11:46:07;;;;;;;3.80;2.22;;;10.70;99.90;;;;;;4858693;29;20425;-80
2021/01/22 11:48:33;;;;;;;2.93;1.83;;;10.70;99.90;;;;;;4873518;29;20408;-80
2021/01/22 11:51:01;;;;;;;3.28;2.03;;;10.70;99.90;;;;;;4873048;29;20454;-79
2021/01/22 11:53:28;;;;;;;3.30;2.30;;;10.70;99.90;;;;;;4862060;29;20780;-80
2021/01/22 11:55:54;;;;;;;2.65;2.33;;;10.70;99.90;;;;;;4874257;29;20434;-81
2021/01/22 11:58:20;;;;;;;2.15;2.03;;;10.70;99.90;;;;;;4858342;29;20425;-80
2021/01/22 12:00:46;;;;;;;2.70;2.10;;;10.70;99.90;;;;;;4858923;29;20420;-80
2021/01/22 12:03:12;;;;;;;2.58;2.05;;;10.60;99.90;;;;;;4857872;29;20811;-80
2021/01/22 12:06:01;;;;;;;3.17;1.85;;;10.70;99.90;;;;;;4850637;29;20412;-81
2021/01/22 12:15:56;;;;;;;1.97;1.70;;;10.60;99.90;;;;;;4811312;29;20429;-78
2021/01/22 12:24:07;;;;;;;1.52;1.40;;;10.50;99.90;;;;;;4856511;29;20409;-81
2021/01/22 12:28:03;;;;;;;2.92;1.50;;;10.30;99.90;;;;;;4808528;29;20492;-81
2021/01/22 12:30:39;;;;;;;1.48;1.38;;;10.20;99.90;;;;;;4864762;29;20422;-82
2021/01/22 12:39:05;;;;;;;2.10;1.90;;;10.10;99.90;;;;;;4837664;29;20446;-81
2021/01/22 12:43:18;;;;;;;1.58;1.48;;;10.10;99.90;;;;;;4852227;29;20499;-80
2021/01/22 12:51:25;;;;;;;0.90;0.90;;;10.00;99.90;;;;;;4872554;29;20419;-81
2021/01/22 12:59:40;;;;;;;1.50;1.40;;;10.00;99.90;;;;;;4791756;29;20501;-81
2021/01/22 13:09:23;;;;;;;1.60;1.50;;;9.80;99.90;;;;;;5462892;23;20773;-82
2021/01/22 13:11:50;;;;;;;0.90;0.90;;;9.70;99.90;;;;;;4832006;29;20504;-82
2021/01/22 13:14:18;;;;;;;0.90;0.90;;;9.50;99.90;;;;;;4851728;29;20407;-81
2021/01/22 13:16:44;;;;;;;0.90;0.90;;;9.70;99.90;;;;;;4820497;29;20409;-82
2021/01/22 13:19:10;;;;;;;0.80;0.80;;;9.60;99.90;;;;;;4815644;29;20426;-82
2021/01/22 13:21:36;;;;;;;0.73;0.73;;;9.60;99.90;;;;;;4825587;29;20454;-82
2021/01/22 13:24:02;;;;;;;0.70;0.70;;;9.60;99.90;;;;;;4823355;29;20424;-82
2021/01/22 13:26:28;;;;;;;1.00;1.00;;;9.50;99.90;;;;;;4809688;29;20918;-82
2021/01/22 13:28:53;;;;;;;1.20;1.10;;;9.50;99.90;;;;;;4826240;29;20407;-83
2021/01/22 13:31:19;;;;;;;0.70;0.70;;;9.40;99.90;;;;;;4824236;29;20443;-82
2021/01/22 13:33:46;;;;;;;2.40;0.90;;;9.40;99.90;;;;;;4826449;29;20411;-82
2021/01/22 13:36:12;;;;;;;0.70;0.70;;;9.30;99.90;;;;;;4808966;29;20939;-81
2021/01/22 13:38:38;;;;;;;0.80;0.80;;;9.30;99.90;;;;;;4814270;29;20422;-81
2021/01/22 13:41:04;;;;;;;2.78;2.30;;;9.40;99.90;;;;;;4847551;29;20447;-82
2021/01/22 13:43:30;;;;;;;1.33;1.27;;;9.20;99.90;;;;;;4849634;29;20441;-82
2021/01/22 13:50:31;;;;;;;0.70;0.70;;;8.90;99.90;;;;;;4852006;29;20406;-82
2021/01/22 13:53:26;;;;;;;0.75;0.75;;;8.80;99.90;;;;;;4849913;29;20416;-81
2021/01/22 14:12:13;;;;;;;0.60;0.60;;;8.70;99.90;;;;;;4895400;29;20422;-80
2021/01/22 14:14:38;;;;;;;0.60;0.60;;;8.60;99.90;;;;;;4855443;29;20980;-80
2021/01/22 14:17:04;;;;;;;0.70;0.70;;;8.60;99.90;;;;;;4842284;29;20401;-79
2021/01/22 14:19:30;;;;;;;0.68;0.68;;;8.70;99.90;;;;;;4854139;29;21050;-79
2021/01/22 14:21:56;;;;;;;1.13;0.88;;;8.70;99.90;;;;;;4871406;29;20404;-79
2021/01/22 14:24:22;;;;;;;1.00;1.00;;;8.70;99.90;;;;;;4830606;29;20906;-80
2021/01/22 14:26:47;;;;;;;1.60;0.90;;;8.70;99.90;;;;;;4861032;29;20835;-79
2021/01/22 14:29:13;;;;;;;2.13;1.50;;;8.70;99.90;;;;;;4865296;29;20411;-79
2021/01/22 14:31:39;;;;;;;1.40;1.30;;;8.70;99.90;;;;;;4864689;29;20436;-78
2021/01/22 14:34:04;;;;;;;1.17;1.10;;;8.70;99.90;;;;;;4865099;29;20468;-78
2021/01/22 14:36:30;;;;;;;0.80;0.80;;;8.60;99.90;;;;;;4832630;29;20409;-79